Time;durP1;ratioP1;P1;durP2;ratioP2;P2;SDS_P1;SDS_P2;PMS_P1;PMS_P2;Temp;Humidity;BMP_temperature;BMP_pressure;BME280_temperature;BME280_humidity;BME280_pressure;Samples;Min_cycle;Max_cycle;Signal;HPM_P1;HPM_P2
2021/06/21 08:51:01;;;;;;;1.80;1.40;;;17.60;99.90;;;;;;4854249;29;20243;-78
2021/06/21 08:53:28;;;;;;;3.33;1.77;;;17.70;99.90;;;;;;4845178;29;20220;-81
2021/06/21 08:55:55;;;;;;;2.23;1.63;;;17.90;99.90;;;;;;4862554;29;20242;-81
2021/06/21 08:58:22;;;;;;;1.83;1.40;;;18.10;99.90;;;;;;4862023;29;20219;-82
2021/06/21 09:00:49;;;;;;;2.07;1.57;;;18.10;99.90;;;;;;4862333;29;20311;-82
2021/06/21 09:03:17;;;;;;;2.80;1.83;;;18.20;99.90;;;;;;4861810;29;20664;-78
2021/06/21 09:05:44;;;;;;;2.53;1.60;;;18.30;99.90;;;;;;4861689;29;20271;-80
2021/06/21 09:08:12;;;;;;;2.07;1.50;;;18.40;99.90;;;;;;4861626;29;20302;-81
2021/06/21 09:10:40;;;;;;;2.37;1.80;;;18.60;99.90;;;;;;4861815;29;20221;-77
2021/06/21 09:13:10;;;;;;;2.13;1.50;;;18.70;99.90;;;;;;4862150;29;20223;-79
2021/06/21 09:15:39;;;;;;;3.00;1.77;;;18.80;99.90;;;;;;4862125;29;20231;-77
2021/06/21 09:18:26;;;;;;;3.33;1.57;;;18.90;99.90;;;;;;4861202;29;20230;-77
2021/06/21 09:21:18;;;;;;;2.13;1.53;;;18.50;99.90;;;;;;4861260;29;20222;-77
2021/06/21 09:23:49;;;;;;;1.73;1.43;;;18.50;99.90;;;;;;4861592;29;20215;-80
2021/06/21 09:26:17;;;;;;;2.20;1.87;;;18.60;99.90;;;;;;4861436;29;20318;-79
2021/06/21 09:28:44;;;;;;;2.00;1.50;;;18.60;99.90;;;;;;4859545;29;20663;-80
2021/06/21 09:31:11;;;;;;;4.80;1.63;;;18.40;99.90;;;;;;4861435;29;20650;-80
2021/06/21 09:33:38;;;;;;;2.90;1.70;;;18.30;99.90;;;;;;4861829;29;20573;-79
2021/06/21 09:36:06;;;;;;;2.37;1.53;;;18.30;99.90;;;;;;4861065;29;20242;-74
2021/06/21 09:38:33;;;;;;;2.13;1.67;;;18.30;99.90;;;;;;4861352;29;20212;-75
2021/06/21 09:41:02;;;;;;;2.20;1.60;;;18.40;99.90;;;;;;4861452;29;20230;-76
2021/06/21 09:43:30;;;;;;;2.87;1.60;;;18.60;99.90;;;;;;4861388;29;20243;-76
2021/06/21 09:46:14;;;;;;;2.10;1.50;;;18.40;99.90;;;;;;4861221;29;20251;-76
2021/06/21 09:48:43;;;;;;;2.50;1.63;;;18.50;99.90;;;;;;4861019;29;20659;-77
2021/06/21 09:51:32;;;;;;;3.53;1.40;;;18.60;99.90;;;;;;4860714;29;20291;-76
2021/06/21 09:54:03;;;;;;;2.10;1.30;;;18.60;99.90;;;;;;4857911;29;20216;-75
2021/06/21 09:56:37;;;;;;;1.83;1.43;;;18.60;99.90;;;;;;4861109;29;20232;-76
2021/06/21 09:59:17;;;;;;;2.33;1.70;;;18.70;99.90;;;;;;4861167;29;20216;-77
2021/06/21 10:01:45;;;;;;;2.10;1.60;;;18.80;99.90;;;;;;4861005;29;20216;-75
2021/06/21 10:04:23;;;;;;;5.63;1.80;;;18.50;99.90;;;;;;4861042;29;20226;-76
2021/06/21 10:06:50;;;;;;;2.83;1.97;;;18.50;99.90;;;;;;4860993;29;20637;-76
2021/06/21 10:09:17;;;;;;;2.13;1.83;;;18.40;99.90;;;;;;4860881;29;20223;-76
2021/06/21 10:11:45;;;;;;;3.37;1.90;;;18.40;99.90;;;;;;4860676;29;20243;-76
2021/06/21 10:14:15;;;;;;;2.27;1.77;;;18.40;99.90;;;;;;4860382;29;20208;-76
2021/06/21 10:16:43;;;;;;;2.50;1.77;;;18.60;99.90;;;;;;4860591;29;20236;-76
2021/06/21 10:19:11;;;;;;;2.70;2.27;;;18.70;99.90;;;;;;4860777;29;20583;-75
2021/06/21 10:21:41;;;;;;;3.10;2.33;;;18.70;99.90;;;;;;4860529;29;20310;-76
2021/06/21 10:24:09;;;;;;;3.20;2.43;;;18.80;99.90;;;;;;4860656;29;20216;-75
2021/06/21 10:26:38;;;;;;;3.20;2.40;;;18.80;99.90;;;;;;4860278;29;20711;-76
2021/06/21 10:29:07;;;;;;;2.47;1.90;;;18.90;99.90;;;;;;4860721;29;20222;-76
2021/06/21 10:31:35;;;;;;;3.20;1.70;;;18.60;99.90;;;;;;4860658;29;20603;-75
2021/06/21 10:34:05;;;;;;;1.90;1.50;;;18.40;99.90;;;;;;4860616;29;20216;-76
2021/06/21 10:36:42;;;;;;;2.00;1.27;;;18.50;99.90;;;;;;4860168;29;20232;-76
2021/06/21 10:39:11;;;;;;;2.23;1.53;;;18.60;99.90;;;;;;4860666;29;20215;-76
2021/06/21 10:41:38;;;;;;;1.30;1.20;;;18.40;99.90;;;;;;4864606;29;20220;-75
2021/06/21 10:44:06;;;;;;;1.73;1.40;;;18.60;99.90;;;;;;4864697;29;20216;-76
2021/06/21 10:46:34;;;;;;;1.60;1.30;;;18.80;99.90;;;;;;4864395;29;20231;-75
2021/06/21 10:49:31;;;;;;;1.87;1.27;;;18.90;99.90;;;;;;4863913;29;20219;-75
2021/06/21 10:51:58;;;;;;;1.40;1.30;;;19.00;99.90;;;;;;4864405;29;20350;-76
2021/06/21 10:54:26;;;;;;;1.40;1.30;;;18.70;99.90;;;;;;4864285;29;20214;-75
2021/06/21 10:56:55;;;;;;;2.80;1.90;;;18.50;99.90;;;;;;4864259;29;20228;-76
2021/06/21 10:59:24;;;;;;;3.57;2.10;;;18.50;99.90;;;;;;4864027;29;20742;-75
2021/06/21 11:01:52;;;;;;;3.83;2.00;;;18.50;99.90;;;;;;4864091;29;20216;-76
2021/06/21 11:04:47;;;;;;;1.97;1.60;;;18.70;99.90;;;;;;4864233;29;20212;-75
2021/06/21 11:07:17;;;;;;;2.33;2.03;;;19.00;99.90;;;;;;4855366;29;20323;-76
2021/06/21 11:09:45;;;;;;;1.77;1.60;;;19.00;99.90;;;;;;4864167;29;20560;-75
2021/06/21 11:12:34;;;;;;;2.20;2.00;;;19.10;99.90;;;;;;4863841;29;20239;-75
2021/06/21 11:15:16;;;;;;;2.30;2.10;;;19.30;99.90;;;;;;4864264;29;20212;-76
2021/06/21 11:17:56;;;;;;;2.30;1.70;;;19.30;99.90;;;;;;4863995;29;20248;-76
2021/06/21 11:20:36;;;;;;;2.77;2.30;;;19.20;99.90;;;;;;4863829;29;20287;-75
2021/06/21 11:23:04;;;;;;;2.23;1.90;;;19.10;99.90;;;;;;4863941;29;20306;-76
2021/06/21 11:25:32;;;;;;;2.30;1.90;;;19.10;99.90;;;;;;4863702;29;20212;-76
2021/06/21 11:28:01;;;;;;;2.67;2.00;;;18.80;99.90;;;;;;4863618;29;20216;-76
2021/06/21 11:30:35;;;;;;;2.47;1.80;;;18.70;99.90;;;;;;4863978;29;20212;-77
2021/06/21 11:33:05;;;;;;;2.53;2.00;;;18.50;99.90;;;;;;4863460;29;20298;-76
2021/06/21 11:35:50;;;;;;;2.67;1.83;;;18.70;99.90;;;;;;4863513;29;20208;-75
2021/06/21 11:38:41;;;;;;;2.70;2.03;;;18.70;99.90;;;;;;4863209;29;20215;-76
2021/06/21 11:41:31;;;;;;;2.40;2.10;;;18.80;99.90;;;;;;4853645;29;20691;-75
2021/06/21 11:44:01;;;;;;;3.00;2.43;;;18.80;99.90;;;;;;4863320;29;20679;-75
2021/06/21 11:46:57;;;;;;;4.00;2.90;;;18.50;99.90;;;;;;4863244;29;20323;-77
2021/06/21 11:49:24;;;;;;;3.40;2.20;;;18.50;99.90;;;;;;4863088;29;20231;-76
2021/06/21 11:51:57;;;;;;;3.83;2.73;;;18.60;99.90;;;;;;4863709;29;20236;-74
2021/06/21 11:54:24;;;;;;;4.37;2.60;;;18.70;99.90;;;;;;4863541;29;20223;-74
2021/06/21 11:56:52;;;;;;;4.10;2.80;;;18.60;99.90;;;;;;4863176;29;20271;-74
2021/06/21 11:59:29;;;;;;;3.77;2.80;;;18.50;99.90;;;;;;4863134;29;20260;-74
2021/06/21 12:02:01;;;;;;;4.30;2.90;;;18.60;99.90;;;;;;4863146;29;20263;-74
2021/06/21 12:04:28;;;;;;;3.90;2.80;;;18.60;99.90;;;;;;4863160;29;20215;-75
2021/06/21 12:06:55;;;;;;;4.20;2.87;;;18.40;99.90;;;;;;4863069;29;20227;-74
2021/06/21 12:09:22;;;;;;;3.77;2.80;;;18.50;99.90;;;;;;4863150;29;20215;-74
2021/06/21 12:11:52;;;;;;;3.73;2.83;;;18.50;99.90;;;;;;4863021;29;20244;-76
2021/06/21 12:14:23;;;;;;;4.80;3.00;;;18.70;99.90;;;;;;4862998;29;20224;-74
2021/06/21 12:16:50;;;;;;;4.50;3.17;;;18.80;99.90;;;;;;4862397;29;20236;-74
2021/06/21 12:19:24;;;;;;;4.27;3.00;;;18.90;99.90;;;;;;4862409;29;20211;-74
2021/06/21 12:21:52;;;;;;;4.00;2.90;;;18.80;99.90;;;;;;4857934;29;20253;-75
2021/06/21 12:24:21;;;;;;;3.23;2.33;;;18.60;99.90;;;;;;4853973;29;20216;-77
2021/06/21 12:26:50;;;;;;;4.23;2.90;;;18.60;99.90;;;;;;4863021;29;20247;-78
2021/06/21 12:29:20;;;;;;;6.77;3.47;;;18.20;99.90;;;;;;4862793;29;20571;-81
2021/06/21 12:32:02;;;;;;;4.17;3.37;;;17.80;99.90;;;;;;4862906;29;20302;-81
2021/06/21 12:34:51;;;;;;;4.80;3.60;;;17.70;99.90;;;;;;4862655;29;20294;-81
2021/06/21 12:37:24;;;;;;;4.53;3.30;;;17.70;99.90;;;;;;4862834;29;20236;-78
2021/06/21 12:39:52;;;;;;;4.73;3.40;;;17.70;99.90;;;;;;4862216;29;20211;-79
2021/06/21 12:42:21;;;;;;;5.77;3.87;;;17.60;99.90;;;;;;4862025;29;20216;-76
2021/06/21 12:44:49;;;;;;;5.00;3.30;;;17.70;99.90;;;;;;4862161;29;20211;-78
2021/06/21 12:47:22;;;;;;;4.67;3.13;;;17.60;99.90;;;;;;4862367;29;20235;-77
2021/06/21 12:49:52;;;;;;;4.47;3.27;;;17.80;99.90;;;;;;4862068;29;20230;-80
2021/06/21 12:52:20;;;;;;;4.90;3.20;;;17.80;99.90;;;;;;4862125;29;20387;-82
2021/06/21 12:54:48;;;;;;;8.17;3.70;;;17.60;99.90;;;;;;4862833;29;20212;-81
2021/06/21 12:57:14;;;;;;;6.53;3.63;;;17.50;99.90;;;;;;4862020;29;20243;-74
2021/06/21 12:59:42;;;;;;;5.33;3.50;;;17.40;99.90;;;;;;4862539;29;20216;-74
2021/06/21 13:02:23;;;;;;;4.27;2.77;;;17.30;99.90;;;;;;4862547;29;20223;-84
2021/06/21 13:04:59;;;;;;;5.90;3.80;;;17.30;99.90;;;;;;4861840;29;20212;-73
2021/06/21 13:07:28;;;;;;;5.73;3.20;;;17.30;99.90;;;;;;4863148;29;20261;-78
2021/06/21 13:09:56;;;;;;;5.63;3.43;;;17.40;99.90;;;;;;4863376;29;20579;-85
2021/06/21 13:12:24;;;;;;;9.97;5.00;;;17.50;99.90;;;;;;4863214;29;20239;-85
2021/06/21 13:14:52;;;;;;;5.90;3.60;;;17.70;99.90;;;;;;4863620;29;20671;-85
2021/06/21 13:17:22;;;;;;;7.10;3.60;;;18.00;99.90;;;;;;4863765;29;20232;-86
2021/06/21 13:19:51;;;;;;;5.70;3.73;;;18.20;99.90;;;;;;4862017;29;20220;-79
2021/06/21 13:22:32;;;;;;;5.47;3.50;;;18.30;99.90;;;;;;4861513;29;20675;-82
2021/06/21 13:25:12;;;;;;;5.10;3.53;;;18.10;99.90;;;;;;4862595;29;20294;-84
2021/06/21 13:27:48;;;;;;;7.80;4.17;;;18.00;99.90;;;;;;4862177;29;20296;-81
2021/06/21 13:30:23;;;;;;;4.80;3.57;;;18.10;99.90;;;;;;4861717;29;20207;-79
2021/06/21 13:32:50;;;;;;;4.93;3.67;;;18.10;99.90;;;;;;4861223;29;20734;-76
2021/06/21 13:35:18;;;;;;;4.33;3.13;;;18.00;99.90;;;;;;4861384;29;20220;-78
2021/06/21 13:37:48;;;;;;;4.70;3.40;;;18.10;99.90;;;;;;4861316;29;20208;-79
2021/06/21 13:40:18;;;;;;;5.93;3.90;;;18.00;99.90;;;;;;4861155;29;20212;-80
2021/06/21 13:42:50;;;;;;;4.67;3.40;;;18.00;99.90;;;;;;4861041;29;20235;-79
2021/06/21 13:45:22;;;;;;;5.60;3.80;;;18.00;99.90;;;;;;4861070;29;20212;-83
2021/06/21 13:47:57;;;;;;;4.70;3.50;;;18.10;99.90;;;;;;4860755;29;20215;-83
2021/06/21 13:50:28;;;;;;;5.87;4.07;;;18.10;99.90;;;;;;4861940;29;20223;-79
2021/06/21 13:52:56;;;;;;;5.60;4.10;;;18.10;99.90;;;;;;4855450;29;20240;-76
2021/06/21 13:55:23;;;;;;;5.73;3.90;;;18.20;99.90;;;;;;4858406;29;20212;-76
2021/06/21 13:57:52;;;;;;;5.23;3.60;;;18.20;99.90;;;;;;4861092;29;20215;-74
2021/06/21 14:00:33;;;;;;;5.33;3.90;;;18.20;99.90;;;;;;4860715;29;20681;-73
2021/06/21 14:03:02;;;;;;;6.60;4.13;;;18.20;99.90;;;;;;4857683;29;20212;-81
2021/06/21 14:05:29;;;;;;;6.60;4.17;;;18.30;99.90;;;;;;4859249;29;20601;-84
2021/06/21 14:07:58;;;;;;;4.87;3.57;;;18.50;99.90;;;;;;4859422;29;20311;-74
2021/06/21 14:10:25;;;;;;;4.37;3.33;;;18.60;99.90;;;;;;4860030;29;20222;-81
2021/06/21 14:12:53;;;;;;;5.73;3.60;;;18.70;99.90;;;;;;4858682;29;20766;-75
2021/06/21 14:15:20;;;;;;;4.77;3.43;;;18.90;99.90;;;;;;4859000;29;20220;-77
2021/06/21 14:17:47;;;;;;;5.13;3.77;;;18.70;99.90;;;;;;4859478;29;20222;-76
2021/06/21 14:20:15;;;;;;;5.57;4.20;;;18.50;99.90;;;;;;4859756;29;20717;-75
2021/06/21 14:22:43;;;;;;;5.47;4.13;;;18.50;99.90;;;;;;4858814;29;20215;-78
2021/06/21 14:25:12;;;;;;;6.17;3.93;;;18.60;99.90;;;;;;4860133;29;20589;-81
2021/06/21 14:27:39;;;;;;;4.90;3.90;;;18.70;99.90;;;;;;4860293;29;20296;-80
2021/06/21 14:30:07;;;;;;;6.33;4.40;;;18.70;99.90;;;;;;4859104;29;20242;-77
2021/06/21 14:32:34;;;;;;;6.57;4.50;;;18.60;99.90;;;;;;4858442;29;20598;-85
2021/06/21 14:35:01;;;;;;;6.60;4.30;;;18.70;99.90;;;;;;4859183;29;20222;-80
2021/06/21 14:37:28;;;;;;;6.17;4.23;;;18.50;99.90;;;;;;4859468;29;20236;-76
2021/06/21 14:39:55;;;;;;;6.40;4.47;;;18.50;99.90;;;;;;4859048;29;20306;-87
2021/06/21 14:42:23;;;;;;;7.13;4.90;;;18.30;99.90;;;;;;4859223;29;20312;-78
2021/06/21 14:44:50;;;;;;;8.47;5.20;;;18.10;99.90;;;;;;4861548;29;20223;-75
2021/06/21 14:47:18;;;;;;;8.03;4.33;;;18.10;99.90;;;;;;4861861;29;20323;-77
2021/06/21 14:49:53;;;;;;;6.77;4.73;;;18.20;99.90;;;;;;4860990;29;20223;-79
2021/06/21 14:52:20;;;;;;;7.90;4.90;;;18.20;99.90;;;;;;4860153;29;20241;-79
2021/06/21 14:54:47;;;;;;;5.67;3.83;;;18.30;99.90;;;;;;4860751;29;20302;-77
2021/06/21 14:57:16;;;;;;;5.30;3.67;;;18.30;99.90;;;;;;4860290;29;20783;-73
2021/06/21 14:59:45;;;;;;;5.47;3.80;;;18.30;99.90;;;;;;4860136;29;20211;-84
2021/06/21 15:02:14;;;;;;;7.20;4.27;;;18.30;99.90;;;;;;4858986;29;20216;-79
2021/06/21 15:04:41;;;;;;;5.13;3.87;;;18.30;99.90;;;;;;4859638;29;20224;-75
2021/06/21 15:07:07;;;;;;;7.30;4.17;;;18.50;99.90;;;;;;4859227;29;20472;-78
2021/06/21 15:09:34;;;;;;;5.53;3.60;;;18.50;99.90;;;;;;4859460;29;20311;-76
2021/06/21 15:12:01;;;;;;;5.10;3.77;;;18.70;99.90;;;;;;4858976;29;20215;-77
2021/06/21 15:14:28;;;;;;;6.27;3.87;;;18.80;99.90;;;;;;4859217;29;20244;-77
2021/06/21 15:16:56;;;;;;;4.43;3.67;;;18.80;99.90;;;;;;4858531;29;20236;-74
2021/06/21 15:19:23;;;;;;;5.47;3.83;;;18.70;99.90;;;;;;4859463;29;20247;-78
2021/06/21 15:21:50;;;;;;;5.97;4.20;;;18.70;99.90;;;;;;4859065;29;20224;-79
2021/06/21 15:24:17;;;;;;;5.13;3.60;;;18.60;99.90;;;;;;4859332;29;20224;-83
2021/06/21 15:26:44;;;;;;;5.13;3.77;;;18.50;99.90;;;;;;4860462;29;20239;-79
2021/06/21 15:29:11;;;;;;;5.43;4.13;;;18.50;99.90;;;;;;4863796;29;20208;-73
2021/06/21 15:31:39;;;;;;;5.17;3.77;;;18.50;99.90;;;;;;4863851;29;20212;-79
2021/06/21 15:34:07;;;;;;;4.83;3.53;;;18.20;99.90;;;;;;4867004;29;20311;-84
2021/06/21 15:36:33;;;;;;;5.90;4.17;;;18.20;99.90;;;;;;4863389;29;20799;-76
2021/06/21 15:39:00;;;;;;;8.23;4.57;;;18.30;99.90;;;;;;4864063;29;20215;-73
2021/06/21 15:41:27;;;;;;;5.87;4.17;;;18.30;99.90;;;;;;4863219;29;20643;-73
2021/06/21 15:43:54;;;;;;;5.67;4.10;;;18.40;99.90;;;;;;4862901;29;20219;-76
2021/06/21 15:46:21;;;;;;;5.20;4.07;;;18.50;99.90;;;;;;4863756;29;20232;-76
2021/06/21 15:48:47;;;;;;;5.63;4.07;;;18.50;99.90;;;;;;4863338;29;20220;-76
2021/06/21 15:51:17;;;;;;;4.80;3.50;;;18.60;99.90;;;;;;4863470;29;20212;-75
2021/06/21 15:53:45;;;;;;;6.13;3.83;;;18.90;99.90;;;;;;4862870;29;20246;-77
2021/06/21 15:56:13;;;;;;;5.60;3.63;;;19.10;99.90;;;;;;4863087;29;20247;-78
2021/06/21 15:58:40;;;;;;;5.07;3.70;;;19.10;99.90;;;;;;4863236;29;20208;-77
2021/06/21 16:01:08;;;;;;;4.83;3.60;;;19.20;99.90;;;;;;4860188;29;20222;-78
2021/06/21 16:03:37;;;;;;;5.10;3.57;;;19.10;99.90;;;;;;4862985;29;20565;-78
2021/06/21 16:06:04;;;;;;;4.37;3.47;;;18.90;99.90;;;;;;4862731;29;20722;-77
2021/06/21 16:08:32;;;;;;;3.67;3.23;;;18.80;99.90;;;;;;4862830;29;20211;-78
2021/06/21 16:10:59;;;;;;;5.23;3.30;;;18.80;99.90;;;;;;4863441;29;20243;-76
2021/06/21 16:13:26;;;;;;;4.27;3.00;;;18.70;99.90;;;;;;4862659;29;20595;-77
2021/06/21 16:15:53;;;;;;;3.67;3.10;;;18.70;99.90;;;;;;4862937;29;20259;-77
2021/06/21 16:18:20;;;;;;;3.83;2.93;;;18.60;99.90;;;;;;4862547;29;20667;-78
2021/06/21 16:20:48;;;;;;;3.73;2.97;;;18.50;99.90;;;;;;4862765;29;20220;-77
2021/06/21 16:23:16;;;;;;;4.03;3.10;;;18.50;99.90;;;;;;4862599;29;20223;-78
2021/06/21 16:25:45;;;;;;;3.67;3.20;;;18.70;99.90;;;;;;4862856;29;20234;-77
2021/06/21 16:28:13;;;;;;;3.70;3.07;;;18.70;99.90;;;;;;4862435;29;20239;-78
2021/06/21 16:30:40;;;;;;;4.70;3.43;;;18.70;99.90;;;;;;4862514;29;20208;-78
2021/06/21 16:33:09;;;;;;;5.43;3.87;;;19.00;99.90;;;;;;4862119;29;20239;-78
2021/06/21 16:35:36;;;;;;;5.87;3.50;;;19.00;99.90;;;;;;4862440;29;20298;-78
2021/06/21 16:38:06;;;;;;;4.90;3.37;;;19.10;99.90;;;;;;4862057;29;20212;-77
2021/06/21 16:40:35;;;;;;;4.37;3.20;;;19.00;99.90;;;;;;4862035;29;20272;-78
2021/06/21 16:43:03;;;;;;;5.40;3.40;;;19.00;99.90;;;;;;4861972;29;20208;-79
2021/06/21 16:45:30;;;;;;;4.87;3.67;;;19.10;99.90;;;;;;4862109;29;20212;-77
2021/06/21 16:47:57;;;;;;;4.37;3.50;;;18.90;99.90;;;;;;4862329;29;20207;-77
2021/06/21 16:50:29;;;;;;;4.43;3.43;;;18.80;99.90;;;;;;4862172;29;20706;-77
2021/06/21 16:52:56;;;;;;;3.90;3.10;;;18.80;99.90;;;;;;4861596;29;20204;-78
2021/06/21 16:55:23;;;;;;;4.57;3.37;;;18.50;99.90;;;;;;4861781;29;20204;-78
2021/06/21 16:57:50;;;;;;;5.77;3.50;;;18.70;99.90;;;;;;4862484;29;20238;-78
2021/06/21 17:00:22;;;;;;;4.47;3.20;;;18.80;99.90;;;;;;4861967;29;20218;-78
2021/06/21 17:02:49;;;;;;;4.53;3.80;;;18.70;99.90;;;;;;4861693;29;20744;-76
2021/06/21 17:05:16;;;;;;;5.23;3.83;;;18.60;99.90;;;;;;4862402;29;20222;-77
2021/06/21 17:07:43;;;;;;;4.43;3.40;;;18.60;99.90;;;;;;4862353;29;20299;-77
2021/06/21 17:10:11;;;;;;;4.57;3.43;;;18.70;99.90;;;;;;4862161;29;20219;-78
2021/06/21 17:12:39;;;;;;;3.80;3.27;;;18.70;99.90;;;;;;4857834;29;20240;-76
2021/06/21 17:15:08;;;;;;;3.63;2.90;;;18.60;99.90;;;;;;4861217;29;20239;-74
2021/06/21 17:17:37;;;;;;;4.50;3.43;;;18.70;99.90;;;;;;4855784;29;20292;-75
2021/06/21 17:20:05;;;;;;;4.07;2.83;;;18.50;99.90;;;;;;4859164;29;20663;-74
2021/06/21 17:22:33;;;;;;;4.40;3.23;;;18.60;99.90;;;;;;4860415;29;20224;-75
2021/06/21 17:25:00;;;;;;;3.77;2.87;;;18.60;99.90;;;;;;4860861;29;20315;-76
2021/06/21 17:27:27;;;;;;;3.30;2.70;;;18.50;99.90;;;;;;4860527;29;20232;-74
2021/06/21 17:29:55;;;;;;;5.37;2.97;;;18.50;99.90;;;;;;4860491;29;20242;-74
2021/06/21 17:32:21;;;;;;;3.07;2.70;;;18.70;99.90;;;;;;4855124;29;20208;-73
2021/06/21 17:34:50;;;;;;;4.03;2.90;;;18.70;99.90;;;;;;4860015;29;20235;-73
2021/06/21 17:37:17;;;;;;;3.57;2.57;;;18.50;99.90;;;;;;4860261;29;20323;-74
2021/06/21 17:39:44;;;;;;;3.20;2.90;;;18.50;99.90;;;;;;4860134;29;20219;-78
2021/06/21 17:42:11;;;;;;;3.67;2.70;;;18.40;99.90;;;;;;4860357;29;20223;-75
2021/06/21 17:44:38;;;;;;;3.60;3.00;;;18.40;99.90;;;;;;4860972;29;20672;-74
2021/06/21 17:47:05;;;;;;;5.60;3.23;;;18.40;99.90;;;;;;4861220;29;20236;-73
2021/06/21 17:49:32;;;;;;;3.40;2.50;;;18.50;99.90;;;;;;4860606;29;20212;-73
2021/06/21 17:52:00;;;;;;;3.37;3.00;;;18.20;99.90;;;;;;4861122;29;20212;-75
2021/06/21 17:54:27;;;;;;;2.73;2.47;;;18.20;99.90;;;;;;4860983;29;20246;-74
2021/06/21 17:56:54;;;;;;;3.93;2.70;;;18.20;99.90;;;;;;4861029;29;20659;-74
2021/06/21 17:59:20;;;;;;;2.87;2.43;;;18.20;99.90;;;;;;4861056;29;20575;-74
2021/06/21 18:01:47;;;;;;;4.40;2.93;;;18.10;99.90;;;;;;4865990;29;20212;-74
2021/06/21 18:04:14;;;;;;;3.27;2.70;;;18.00;99.90;;;;;;4862729;29;20738;-73
2021/06/21 18:06:41;;;;;;;3.53;2.80;;;17.90;99.90;;;;;;4860942;29;20228;-74
2021/06/21 18:09:09;;;;;;;2.77;2.50;;;18.00;99.90;;;;;;4860903;29;20216;-73
2021/06/21 18:11:36;;;;;;;2.70;2.40;;;18.00;99.90;;;;;;4861006;29;20227;-74
2021/06/21 18:14:04;;;;;;;3.17;2.47;;;17.90;99.90;;;;;;4860762;29;20239;-74
2021/06/21 18:16:31;;;;;;;3.27;2.70;;;17.90;99.90;;;;;;4860771;29;20304;-74
2021/06/21 18:18:58;;;;;;;3.27;2.60;;;17.80;99.90;;;;;;4860983;29;20216;-74
2021/06/21 18:21:24;;;;;;;2.43;2.03;;;17.80;99.90;;;;;;4860533;29;20303;-73
2021/06/21 18:23:51;;;;;;;2.60;2.20;;;17.80;99.90;;;;;;4860737;29;20216;-73
2021/06/21 18:26:19;;;;;;;3.40;2.40;;;17.90;99.90;;;;;;4860567;29;20255;-75
2021/06/21 18:28:47;;;;;;;3.63;2.90;;;17.80;99.90;;;;;;4860281;29;20219;-74
2021/06/21 18:31:14;;;;;;;4.47;2.50;;;17.70;99.90;;;;;;4860182;29;20241;-74
2021/06/21 18:33:41;;;;;;;2.23;1.90;;;17.80;99.90;;;;;;4860306;29;20610;-74
2021/06/21 18:36:08;;;;;;;2.63;2.37;;;17.80;99.90;;;;;;4859872;29;20228;-74
2021/06/21 18:38:35;;;;;;;3.53;2.30;;;17.80;99.90;;;;;;4854524;29;20215;-71
2021/06/21 18:41:02;;;;;;;3.50;2.33;;;17.70;99.90;;;;;;4860062;29;20787;-74
2021/06/21 18:43:30;;;;;;;3.07;2.20;;;17.70;99.90;;;;;;4860601;29;20233;-74
2021/06/21 18:45:57;;;;;;;2.70;2.30;;;17.80;99.90;;;;;;4860218;29;20783;-71
2021/06/21 18:48:24;;;;;;;2.90;2.20;;;17.60;99.90;;;;;;4859641;29;20668;-71
2021/06/21 18:50:51;;;;;;;2.50;2.10;;;17.70;99.90;;;;;;4860615;29;20216;-72
2021/06/21 18:53:18;;;;;;;3.03;2.43;;;17.70;99.90;;;;;;4860328;29;20231;-71
2021/06/21 18:55:45;;;;;;;2.80;2.10;;;17.70;99.90;;;;;;4859914;29;20244;-74
2021/06/21 18:58:13;;;;;;;3.47;2.30;;;17.70;99.90;;;;;;4860438;29;20223;-73
2021/06/21 19:00:42;;;;;;;4.00;2.27;;;17.60;99.90;;;;;;4860530;29;20212;-73
2021/06/21 19:03:09;;;;;;;2.30;2.10;;;17.60;99.90;;;;;;4863924;29;20249;-74
2021/06/21 19:05:36;;;;;;;3.10;2.53;;;17.70;99.90;;;;;;4864245;29;20295;-74
2021/06/21 19:08:04;;;;;;;3.37;2.37;;;17.80;99.90;;;;;;4864245;29;20235;-74
2021/06/21 19:10:33;;;;;;;4.07;2.17;;;17.90;99.90;;;;;;4864235;29;20218;-74
2021/06/21 19:13:02;;;;;;;5.00;2.30;;;17.80;99.90;;;;;;4864248;29;20207;-76
2021/06/21 19:15:30;;;;;;;2.90;2.27;;;17.80;99.90;;;;;;4864293;29;20239;-77
2021/06/21 19:17:59;;;;;;;3.10;2.20;;;17.70;99.90;;;;;;4864287;29;20288;-77
2021/06/21 19:20:27;;;;;;;2.67;2.00;;;17.50;99.90;;;;;;4863955;29;20212;-76
2021/06/21 19:22:55;;;;;;;2.93;2.20;;;17.50;99.90;;;;;;4864092;29;20579;-76
2021/06/21 19:25:27;;;;;;;2.90;2.27;;;17.70;99.90;;;;;;4863708;29;20223;-76
2021/06/21 19:27:55;;;;;;;4.00;2.57;;;17.60;99.90;;;;;;4863615;29;20702;-76
2021/06/21 19:30:23;;;;;;;2.60;2.00;;;17.50;99.90;;;;;;4863309;29;20215;-75
2021/06/21 19:32:51;;;;;;;2.40;2.10;;;17.40;99.90;;;;;;4863839;29;20219;-75
2021/06/21 19:35:19;;;;;;;3.47;2.40;;;17.20;99.90;;;;;;4863678;29;20240;-74
2021/06/21 19:37:47;;;;;;;2.57;2.00;;;17.20;99.90;;;;;;4863594;29;20215;-75
2021/06/21 19:40:14;;;;;;;2.33;1.90;;;17.20;99.90;;;;;;4863603;29;20223;-76
2021/06/21 19:42:43;;;;;;;4.00;2.50;;;17.00;99.90;;;;;;4863268;29;20219;-76
2021/06/21 19:45:12;;;;;;;4.13;2.63;;;17.00;99.90;;;;;;4863553;29;20572;-76
2021/06/21 19:47:39;;;;;;;3.87;2.40;;;16.80;99.90;;;;;;4863442;29;20665;-76
2021/06/21 19:50:07;;;;;;;2.97;2.47;;;16.70;99.90;;;;;;4863239;29;20223;-76
2021/06/21 19:52:36;;;;;;;3.20;2.60;;;16.70;99.90;;;;;;4863221;29;20219;-76
2021/06/21 19:55:15;;;;;;;3.13;2.30;;;16.70;99.90;;;;;;4863133;29;20242;-76
2021/06/21 19:57:42;;;;;;;5.27;2.80;;;16.80;99.90;;;;;;4863465;29;20314;-76
2021/06/21 20:00:10;;;;;;;3.47;2.53;;;16.80;99.90;;;;;;4863222;29;20208;-75
2021/06/21 20:02:37;;;;;;;6.10;2.77;;;16.60;99.90;;;;;;4863391;29;20227;-75
2021/06/21 20:05:04;;;;;;;5.13;2.60;;;16.60;99.90;;;;;;4863004;29;20219;-75
2021/06/21 20:07:31;;;;;;;3.03;2.50;;;16.70;99.90;;;;;;4863067;29;20265;-76
2021/06/21 20:09:59;;;;;;;2.93;2.20;;;16.60;99.90;;;;;;4863300;29;20219;-74
2021/06/21 20:12:26;;;;;;;3.10;2.53;;;16.60;99.90;;;;;;4862681;29;20216;-75
2021/06/21 20:14:53;;;;;;;3.63;2.40;;;16.60;99.90;;;;;;4863033;29;20627;-75
2021/06/21 20:17:20;;;;;;;3.93;2.40;;;16.50;99.90;;;;;;4862845;29;20238;-76
2021/06/21 20:19:47;;;;;;;3.37;2.23;;;16.50;99.90;;;;;;4863004;29;20211;-76
2021/06/21 20:22:13;;;;;;;4.40;2.57;;;16.50;99.90;;;;;;4862691;29;20227;-75
2021/06/21 20:24:40;;;;;;;3.13;2.17;;;16.40;99.90;;;;;;4863048;29;20218;-75
2021/06/21 20:27:09;;;;;;;2.30;2.10;;;16.40;99.90;;;;;;4862860;29;20228;-76
2021/06/21 20:29:36;;;;;;;2.50;2.00;;;16.40;99.90;;;;;;4862711;29;20208;-75
2021/06/21 20:32:03;;;;;;;2.33;1.97;;;16.40;99.90;;;;;;4862897;29;20220;-76
2021/06/21 20:34:41;;;;;;;2.53;2.00;;;16.30;99.90;;;;;;4862732;29;20232;-75
2021/06/21 20:37:08;;;;;;;2.70;2.40;;;16.40;99.90;;;;;;4862688;29;20570;-75
2021/06/21 20:39:35;;;;;;;2.77;2.13;;;16.40;99.90;;;;;;4862670;29;20208;-75
2021/06/21 20:42:02;;;;;;;4.13;1.90;;;16.40;99.90;;;;;;4862411;29;20219;-74
2021/06/21 20:44:30;;;;;;;4.33;1.97;;;16.50;99.90;;;;;;4862575;29;20579;-76
2021/06/21 20:46:57;;;;;;;2.40;1.90;;;16.40;99.90;;;;;;4862962;29;20719;-76
2021/06/21 20:49:24;;;;;;;2.47;2.20;;;16.40;99.90;;;;;;4862288;29;20227;-76
2021/06/21 20:51:51;;;;;;;3.40;2.30;;;16.40;99.90;;;;;;4862515;29;20243;-74
2021/06/21 20:54:18;;;;;;;2.37;2.07;;;16.30;99.90;;;;;;4862334;29;20239;-75
2021/06/21 20:56:45;;;;;;;3.50;1.50;;;16.30;99.90;;;;;;4862515;29;20231;-76
2021/06/21 20:59:11;;;;;;;3.50;1.90;;;16.20;99.90;;;;;;4862204;29;20220;-76
